OINN  Noshahr  Airport

Iran

Add Bookmark
ICAO OINN
IATA NSH
Type Airport
Status Operational
Latitude
36° 39' 47" N
36.663300
Longitude
51° 27' 52" E
51.464699
Local (DST + 5) UTC (GMT + 4)
Apr 21, 2015 04:07 Apr 21, 2015 11:37
Sunrise-Sunset Local UTC
Begin Civil Twilight 05:54 01:24
Sunrise 06:21 01:51
Sunset 07:44 15:14
End Civil Twilight 08:11 15:41
VFR
VFR
MVFR
MVFR
IFR
VFR
LIFR
VFR
Unknown
Unavailable

Current Weather

METAR Observed MVFR
OINN 211100Z 06006KT 6000 FEW030 SCT200 17/15 Q1004 Tue, Apr 21, 2015 @ 11:00 UTC
(37 Minutes ago)
Marginal Visual Flight Rules
Wind Visibility Clouds Conditions
060° at 6 knots (11 kph) 6,003 m
  • Few at 3,000 ft AGL
  • Scattered at 20,000 ft AGL
  • No significant weather
Temperatures Readings Precipitation
Current Temp
17°C
63°F
Dewpoint
15°C
59°F
Humidity 88%
Altimeter 29.65" Hg
Sea Level Pressure 1,004 mb
None Recorded

Additional weather within a 92.6km radius of OINN

Map ICAO Location
OINR 75km W/NW (292°)
VFR
VFR
MVFR
MVFR
IFR
VFR
LIFR
VFR
Unknown
Unavailable
-
-

CheckWX.com is intended as a tool to help pilots better visualize weather data. It is not intended as a substitute for an official weather briefing obtained from a Flight Service Station. CheckWX.com does not meet the FAA requirements for an official pre-flight weather briefing. Therefore, it's important that pilots still call and obtain an official FSS pre-flight weather briefing.

© 2007-2015 CheckWX.com
11:37:05 UTC